Weather observations for the past three days for
Brady, Curtis Field Airport
Metric (Imperial)
Date Time (cdt) Wind (kph) Vis. (km) Weather Sky Cond. Temperature (ºC) Relative Humidity Wind Chill (°C) Heat Index (°C) Pressure Precipitation (cm)
Air Dwpt 6 hour altimeter (cm) sea level (mb) 1 hr 3 hr 6 hr
Max. Min.
06 07:15 NE 20 16.09 Overcast OVC009 14 11 82% 75.79 0.0
06 06:55 N 19 16.09 Overcast OVC010 14 12 88% 75.84 0.0
06 06:35 N 15 16.09 Overcast OVC010 15 12 82% 75.82 0.0
06 06:15 N 13 G 22 16.09 Overcast OVC012 15 12 82% 75.79 0.0
06 05:55 N 13 G 24 16.09 Overcast OVC013 15 12 82% 75.79 0.0
06 05:35 N 17 16.09 Overcast OVC014 15 13 88% 75.79 0.0
06 05:15 N 15 16.09 Overcast BKN015 OVC024 15 13 88% 75.77 0.0
06 04:55 N 19 16.09 Overcast SCT019 OVC024 15 13 88% 75.74 0.0
06 04:35 N 17 16.09 Overcast OVC022 16 13 83% 75.72 0.0
06 04:15 N 17 16.09 Overcast OVC019 16 14 88% 75.74 0.0
06 03:55 N 17 16.09 Overcast OVC019 17 14 83% 75.72 0.0
06 03:35 N 13 16.09 Overcast OVC021 17 14 83% 75.72 0.0
06 03:15 N 17 16.09 Partly Cloudy SCT022 16 14 88% 75.69 0.0
06 02:55 N 9 16.09 Fair CLR 16 15 94% 75.69 0.0
06 02:35 NE 13 16.09 Fair CLR 17 15 88% 75.67 0.0
06 02:15 N 15 16.09 Fair CLR 17 15 88% 75.67 0.0
06 01:55 N 13 16.09 Fair CLR 18 15 83% 75.67 0.0
06 01:35 N 15 16.09 Fair CLR 18 15 83% 75.67 0.0
06 01:15 N 13 16.09 Fair CLR 18 15 83% 75.67 0.0
06 00:55 N 9 16.09 Fair CLR 18 15 83% 75.67 0.0
06 00:35 N 15 16.09 Fair CLR 19 15 78% 75.69 0.0
06 00:15 N 7 16.09 A Few Clouds FEW050 20 15 73% 75.67 0.0
05 23:55 N 9 16.09 A Few Clouds FEW050 20 15 73% 75.67 0.0
05 23:35 N 9 16.09 Fair CLR 20 15 73% 75.67 0.0
05 23:15 Vrbl 6 16.09 Fair CLR 22 14 61% 75.67 0.0
05 22:55 N 7 16.09 Fair CLR 23 14 57% 75.67 0.0
05 22:35 N 13 16.09 Fair CLR 24 12 47% 25 75.64 0.0
05 22:15 Calm 16.09 Fair CLR 23 17 69% 75.59 0.0
05 21:55 W 9 16.09 Fair CLR 24 17 65% 25 75.57 0.0
05 21:35 W 6 16.09 Fair CLR 25 16 57% 26 75.54 0.0
05 21:15 Calm 16.09 Fair CLR 26 16 54% 27 75.54 0.0
05 20:55 Calm 16.09 Fair CLR 26 15 51% 27 75.51 0.0
05 20:35 SW 6 16.09 Fair CLR 27 15 48% 27 75.49 0.0
05 20:15 Calm 16.09 Fair CLR 28 15 45% 28 75.46 0.0
05 19:55 SW 6 16.09 Fair CLR 28 15 45% 28 75.46 0.0
05 19:35 S 6 16.09 Fair CLR 29 15 43% 29 75.44 0.0
05 19:15 S 7 16.09 Fair CLR 29 15 43% 29 75.44 0.0
05 18:55 SW 11 16.09 Fair CLR 30 15 40% 30 75.44 0.0
05 18:35 S 9 16.09 Fair CLR 32 14 33% 31 75.44 0.0
05 18:15 SW 7 16.09 Fair CLR 31 15 38% 31 75.44 0.0
05 17:55 SW 9 16.09 Fair CLR 31 14 35% 30 75.44 0.0
05 17:35 SW 9 16.09 Fair CLR 31 14 35% 30 75.46 0.0
05 17:15 W 13 16.09 Fair CLR 32 13 31% 31 75.46 0.0
05 16:55 Vrbl 9 16.09 Fair CLR 32 14 33% 31 75.46 0.0
05 16:35 W 9 G 22 16.09 Fair CLR 32 13 31% 31 75.46 0.0
05 16:15 W 9 16.09 Fair CLR 32 14 33% 31 75.49 0.0
05 15:55 Calm 16.09 Fair CLR 31 15 38% 31 75.49 0.0
05 15:35 SW 9 16.09 Fair CLR 31 16 40% 31 75.49 0.0
05 15:15 W 15 16.09 Fair CLR 31 15 38% 31 75.51 0.0
05 14:55 NW 11 16.09 Fair CLR 31 16 40% 31 75.51 0.0
05 14:35 W 11 G 20 16.09 Fair CLR 30 16 43% 30 75.54 0.0
05 14:15 Vrbl 7 G 20 16.09 Fair CLR 30 16 43% 30 75.54 0.0
05 13:55 SW 15 16.09 Fair CLR 30 17 46% 30 75.57 0.0
05 13:35 Vrbl 11 G 26 16.09 Fair CLR 29 17 48% 29 75.59 0.0
05 13:15 SW 15 16.09 Fair CLR 29 18 51% 30 75.62 0.0
05 12:55 SW 20 16.09 Fair CLR 28 19 58% 29 75.62 0.0
05 12:35 SW 24 16.09 Fair CLR 28 19 58% 29 75.64 0.0
05 12:15 SW 17 G 28 16.09 Fair CLR 27 19 62% 28 75.64 0.0
05 11:55 SW 17 16.09 Fair CLR 26 19 65% 27 75.64 0.0
05 11:35 SW 19 16.09 Fair CLR 26 19 65% 27 75.64 0.0
05 11:15 SW 19 16.09 Fair CLR 25 19 69% 26 75.67 0.0
05 10:55 SW 15 G 28 16.09 Fair CLR 24 19 74% 25 75.64 0.0
05 10:35 SW 20 8.05 Fair with Haze CLR 24 19 74% 25 75.64 0.0
05 10:15 SW 22 4.83 A Few Clouds with Haze FEW018 24 19 74% 25 75.64 0.0
05 09:55 SW 20 G 31 6.44 Fair with Haze CLR 23 19 78% 75.62 0.0
05 09:35 SW 26 G 41 4.83 A Few Clouds with Haze FEW014 23 19 78% 75.62 0.0
05 09:15 SW 28 G 39 4.83 Partly Cloudy with Haze SCT013 22 19 83% 75.62 0.0
05 08:55 SW 24 G 33 4.83 Overcast with Haze OVC013 22 19 83% 75.62 0.0
05 08:15 SW 22 4.02 Fog/Mist FEW013 20 19 94% 75.59 0.0
05 07:55 SW 19 4.02 Fog/Mist CLR 19 18 94% 75.57 0.0
05 07:35 SW 20 4.83 Fog/Mist CLR 19 18 94% 75.54 0.0
05 07:15 SW 15 4.83 Fog/Mist CLR 19 17 88% 75.54 0.0
05 06:55 SW 15 4.83 Fog/Mist CLR 18 17 94% 75.54 0.0
05 06:35 S 15 6.44 Fog/Mist CLR 18 17 94% 75.51 0.0
05 06:15 SW 17 6.44 Fog/Mist CLR 19 17 88% 75.51 0.0
05 05:55 SW 19 16.09 Fair CLR 19 17 88% 75.49 0.0
05 05:35 SW 19 16.09 Fair CLR 19 17 88% 75.49 0.0
05 04:55 SW 19 G 28 16.09 Fair CLR 19 17 88% 75.49 0.0
05 04:35 SW 19 16.09 Fair CLR 19 17 88% 75.51 0.0
05 04:15 S 17 16.09 Fair CLR 19 17 88% 75.51 0.0
05 03:55 SW 20 16.09 Fair CLR 19 17 88% 75.54 0.0
05 03:35 SW 20 16.09 Fair CLR 20 17 83% 75.54 0.0
05 03:15 SW 20 16.09 Fair CLR 20 17 83% 75.54 0.0
05 02:55 SW 20 G 31 16.09 Fair CLR 20 17 83% 75.57 0.0
05 02:35 S 22 16.09 Fair CLR 20 17 83% 75.57 0.0
05 02:15 SW 26 G 35 16.09 Fair CLR 20 17 83% 75.59 0.0
05 01:55 S 20 G 33 16.09 Fair CLR 21 17 78% 75.59 0.0
05 01:35 SW 24 G 35 16.09 Fair CLR 21 17 78% 75.62 0.0
05 01:15 SW 20 G 33 16.09 Fair CLR 21 17 78% 75.62 0.0
05 00:55 S 26 G 35 16.09 Fair CLR 21 17 78% 75.62 0.0
05 00:35 SW 28 G 39 16.09 Fair CLR 21 17 78% 75.62 0.0
05 00:15 S 20 G 37 16.09 Fair CLR 21 17 78% 75.64 0.0
04 23:55 S 20 G 33 16.09 Fair CLR 22 17 73% 75.64 0.0
04 23:35 S 19 G 31 16.09 Fair CLR 22 17 73% 75.64 0.0
04 23:15 S 17 16.09 Fair CLR 22 17 73% 75.64 0.0
04 22:55 S 20 16.09 Fair CLR 22 17 73% 75.64 0.0
04 22:35 S 22 16.09 Fair CLR 22 17 73% 75.64 0.0
04 22:15 S 22 16.09 Fair CLR 22 17 73% 75.64 0.0
04 21:55 S 24 G 35 16.09 Fair CLR 23 16 65% 75.64 0.0
04 21:35 S 20 G 37 16.09 Fair CLR 23 16 65% 75.62 0.0
04 21:15 S 22 G 33 16.09 A Few Clouds FEW031 23 17 69% 75.62 0.0
04 20:55 S 17 16.09 Fair CLR 24 17 65% 25 75.59 0.0
04 20:35 S 15 G 24 16.09 Fair CLR 24 17 65% 25 75.57 0.0
04 20:15 S 13 16.09 Fair CLR 25 17 61% 26 75.57 0.0
04 19:55 S 15 G 24 16.09 Fair CLR 25 17 61% 26 75.57 0.0
04 19:15 S 24 G 35 16.09 Fair CLR 27 16 51% 27 75.59 0.0
04 18:55 S 26 G 37 16.09 Fair CLR 27 16 51% 27 75.59 0.0
04 18:35 S 22 G 35 16.09 Fair CLR 28 16 48% 28 75.59 0.0
04 18:15 S 24 G 39 16.09 Fair CLR 28 16 48% 28 75.59 0.0
04 17:55 S 28 G 37 16.09 Fair CLR 28 16 48% 28 75.59 0.0
04 17:35 S 28 16.09 Fair CLR 29 16 45% 29 75.62 0.0
04 17:15 S 26 G 46 16.09 Fair CLR 29 15 43% 29 75.62 0.0
04 16:55 S 28 G 43 16.09 Fair CLR 29 16 45% 29 75.62 0.0
04 16:35 S 22 G 37 16.09 Fair CLR 29 16 45% 29 75.67 0.0
04 16:15 SW 24 G 37 16.09 Fair CLR 28 16 48% 28 75.69 0.0
04 15:55 S 22 G 35 16.09 Fair CLR 28 16 48% 28 75.69 0.0
04 15:35 SW 24 G 35 16.09 Fair CLR 28 16 48% 28 75.72 0.0
04 15:15 S 22 G 33 16.09 Fair CLR 28 16 48% 28 75.77 0.0
04 14:55 S 20 G 35 16.09 Fair CLR 27 16 51% 27 75.79 0.0
04 14:35 S 24 16.09 Fair CLR 26 16 54% 27 75.82 0.0
04 14:15 S 26 G 41 16.09 Fair CLR 26 16 54% 27 75.84 0.0
04 13:55 S 28 16.09 Fair CLR 26 16 54% 27 75.84 0.0
04 13:35 SW 19 G 30 16.09 Fair CLR 26 16 54% 27 75.87 0.0
04 13:15 S 24 G 33 16.09 Fair CLR 25 15 54% 26 75.9 0.0
04 12:55 S 22 G 35 16.09 Fair CLR 24 15 57% 25 75.92 0.0
04 12:35 SW 28 G 41 16.09 Fair CLR 24 15 57% 25 75.95 0.0
04 12:15 SW 24 G 35 16.09 Fair CLR 24 15 57% 25 75.95 0.0
04 11:55 S 28 16.09 Fair CLR 23 15 61% 75.95 0.0
04 11:35 SW 30 16.09 Fair CLR 23 15 61% 75.95 0.0
04 11:15 S 33 G 46 16.09 Fair and Breezy CLR 23 15 61% 76 0.0
04 10:55 S 28 G 41 16.09 Fair CLR 22 15 65% 75.97 0.0
04 10:35 S 37 G 46 16.09 Fair and Breezy CLR 21 14 64% 75.97 0.0
04 10:15 S 24 G 39 16.09 Fair CLR 20 14 69% 76.02 0.0
04 09:55 S 33 G 44 16.09 Fair and Breezy CLR 20 14 69% 76 0.0
04 09:35 S 28 G 44 16.09 Fair CLR 19 14 73% 76 0.0
04 09:15 SW 30 G 43 16.09 Fair CLR 18 14 78% 76.02 0.0
04 08:55 S 31 G 43 16.09 Fair CLR 18 13 73% 76.02 0.0
04 08:35 S 26 16.09 Fair CLR 17 13 77% 76 0.0
04 08:15 S 17 G 30 16.09 Fair CLR 16 13 83% 76.02 0.0
04 07:55 S 17 16.09 Fair CLR 15 13 88% 76 0.0
04 07:35 S 15 16.09 Fair CLR 14 13 94% 76 0.0
04 07:15 S 11 16.09 Fair CLR 14 12 88% 75.97 0.0
04 06:55 S 13 16.09 Fair CLR 14 12 88% 75.97 0.0
04 06:35 S 13 16.09 Fair CLR 14 12 88% 76 0.0
04 06:15 S 15 16.09 Fair CLR 14 12 88% 75.97 0.0
04 05:55 S 13 16.09 Fair CLR 14 12 88% 75.97 0.0
04 05:35 S 15 16.09 Fair CLR 14 12 88% 75.97 0.0
04 05:15 S 15 16.09 Fair CLR 14 12 88% 76 0.0
04 04:55 S 17 16.09 Fair CLR 14 11 82% 76.02 0.0
04 04:35 S 15 G 26 16.09 Fair CLR 15 11 77% 76.02 0.0
04 04:15 S 19 16.09 Fair CLR 15 11 77% 76.05 0.0
04 03:55 S 13 16.09 Fair CLR 15 10 72% 76.05 0.0
04 03:35 S 13 16.09 Fair CLR 15 10 72% 76.07 0.0
04 03:15 SE 13 16.09 Fair CLR 15 10 72% 76.1 0.0
04 02:55 S 15 16.09 Fair CLR 15 9 68% 76.07 0.0
04 02:35 S 15 16.09 Fair CLR 15 9 68% 76.07 0.0
04 02:15 S 15 16.09 Fair CLR 15 9 68% 76.1 0.0
04 01:55 S 11 G 20 16.09 Fair CLR 15 9 68% 76.1 0.0
04 01:35 S 9 16.09 Fair CLR 15 9 68% 76.12 0.0
04 01:15 S 13 16.09 Fair CLR 15 9 68% 76.15 0.0
04 00:55 S 9 16.09 Fair CLR 16 9 63% 76.17 0.0
04 00:35 S 9 16.09 Fair CLR 16 9 63% 76.2 0.0
04 00:15 S 9 16.09 Fair CLR 16 9 63% 76.23 0.0
03 23:55 S 7 16.09 Fair CLR 17 8 56% 76.25 0.0
03 23:35 S 15 16.09 Fair CLR 17 8 56% 76.25 0.0
03 23:15 S 15 16.09 Fair CLR 17 8 56% 76.25 0.0
03 22:55 S 17 16.09 A Few Clouds FEW042 18 8 52% 76.25 0.0
03 22:35 S 15 16.09 A Few Clouds FEW038 FEW045 18 8 52% 76.25 0.0
03 22:15 S 15 16.09 Fair CLR 18 8 52% 76.25 0.0
03 21:55 S 13 16.09 Fair CLR 18 8 52% 76.25 0.0
03 21:35 S 15 16.09 Fair CLR 19 8 49% 76.25 0.0
03 21:15 S 15 16.09 Fair CLR 19 8 49% 76.25 0.0
03 20:55 S 11 16.09 Fair CLR 19 8 49% 76.23 0.0
03 20:35 S 11 16.09 Fair CLR 20 8 46% 76.23 0.0
03 20:15 SE 13 16.09 Fair CLR 20 8 46% 76.23 0.0
03 19:55 SE 13 16.09 Fair CLR 21 8 43% 76.2 0.0
03 19:35 SE 11 16.09 Fair CLR 21 8 43% 76.23 0.0
03 19:15 SE 11 16.09 Fair CLR 22 8 41% 76.23 0.0
03 18:55 SE 13 16.09 Fair CLR 22 7 38% 76.25 0.0
03 18:35 S 17 G 26 16.09 Fair CLR 23 7 36% 76.25 0.0
03 18:15 S 19 16.09 Fair CLR 23 7 36% 76.25 0.0
03 17:35 S 15 16.09 Fair CLR 23 7 36% 76.3 0.0
03 17:15 SE 19 G 30 16.09 Fair CLR 23 5 31% 76.28 0.0
03 16:55 S 30 16.09 Fair CLR 24 6 31% 25 76.3 0.0
03 16:35 S 20 G 31 16.09 Fair CLR 24 5 29% 25 76.35 0.0
03 16:15 S 22 G 33 16.09 Fair CLR 24 5 29% 25 76.35 0.0
03 15:55 S 17 16.09 Fair CLR 24 6 31% 25 76.4 0.0
03 15:35 S 17 G 28 16.09 Fair CLR 24 5 29% 25 76.43 0.0
03 15:15 S 20 16.09 Fair CLR 24 6 31% 25 76.45 0.0
03 14:55 S 20 16.09 Fair CLR 24 6 31% 25 76.48 0.0
03 14:35 S 20 G 30 16.09 Fair CLR 23 5 31% 76.5 0.0
03 14:15 S 20 G 33 16.09 Fair CLR 23 5 31% 76.53 0.0
03 13:55 S 17 G 26 16.09 Fair CLR 24 6 31% 25 76.56 0.0
03 13:35 S 19 16.09 Fair CLR 23 6 33% 76.58 0.0
03 13:15 S 15 G 28 16.09 Fair CLR 23 6 33% 76.61 0.0
03 12:55 S 15 G 28 16.09 Fair CLR 23 4 29% 76.63 0.0
03 12:35 S 20 16.09 Fair CLR 23 3 27% 76.66 0.0
03 12:15 S 19 G 30 16.09 Fair CLR 23 4 29% 76.68 0.0
03 11:55 S 17 G 31 16.09 Fair CLR 22 2 27% 76.71 0.0
03 11:35 S 22 16.09 Fair CLR 22 3 29% 76.71 0.0
03 11:15 S 17 G 33 16.09 Fair CLR 21 6 38% 76.73 0.0
03 10:55 S 19 16.09 Fair CLR 21 8 43% 76.76 0.0
03 10:35 SW 20 16.09 Fair CLR 20 7 43% 76.73 0.0
03 10:15 S 19 16.09 Fair CLR 20 8 46% 76.76 0.0
03 09:55 SW 15 16.09 Fair CLR 19 9 52% 76.73 0.0
03 09:35 SW 15 16.09 Fair CLR 18 9 56% 76.73 0.0
03 09:15 SW 11 16.09 Fair CLR 17 9 60% 76.73 0.0
03 08:55 SW 13 16.09 Fair CLR 16 9 63% 76.73 0.0
03 08:35 SW 11 16.09 Fair CLR 15 9 68% 76.71 0.0
03 08:15 SW 9 16.09 Fair CLR 14 9 72% 76.68 0.0
03 07:55 W 7 16.09 Fair CLR 12 9 82% 76.68 0.0
03 07:35 SW 9 16.09 Fair CLR 11 8 82% 76.68 0.0
Date Time (cdt) Wind (kph) Vis. (km) Weather Sky Cond. Air Dwpt Max. Min. Relative Humidity Wind Chill (°C) Heat Index (°C) altimeter (cm) sea level (mb) 1 hr 3 hr 6 hr
6 hour
Temperature (ºC) Pressure Precipitation (cm)